Time;durP1;ratioP1;P1;durP2;ratioP2;P2;SDS_P1;SDS_P2;PMS_P1;PMS_P2;Temp;Humidity;BMP_temperature;BMP_pressure;BME280_temperature;BME280_humidity;BME280_pressure;Samples;Min_cycle;Max_cycle;Signal;HPM_P1;HPM_P2
2023/01/01 00:00:12;;;;;;;17.23;2.38;;;;;;;;;;5031910;28;20030;-67
2023/01/01 00:02:38;;;;;;;17.45;2.50;;;;;;;;;;5032861;28;20421;-67
2023/01/01 00:05:05;;;;;;;19.27;3.95;;;;;;;;;;5032756;28;20029;-67
2023/01/01 00:07:31;;;;;;;12.68;2.05;;;;;;;;;;5032933;28;20382;-67
2023/01/01 00:12:42;;;;;;;12.57;2.47;;;;;;;;;;5032880;28;20033;-67
2023/01/01 00:15:08;;;;;;;15.40;2.13;;;;;;;;;;5032608;28;20033;-67
2023/01/01 00:17:34;;;;;;;16.85;2.10;;;;;;;;;;5032842;28;20441;-67
2023/01/01 00:20:00;;;;;;;11.70;2.22;;;;;;;;;;5032552;28;20512;-67
2023/01/01 00:22:27;;;;;;;14.38;2.20;;;;;;;;;;5028094;28;20513;-67
2023/01/01 00:24:53;;;;;;;11.15;2.28;;;;;;;;;;5021451;28;20021;-67
2023/01/01 00:27:19;;;;;;;17.55;2.65;;;;;;;;;;5032540;28;20037;-67
2023/01/01 00:29:45;;;;;;;9.80;2.45;;;;;;;;;;5032285;28;20132;-67
2023/01/01 00:32:11;;;;;;;13.10;2.00;;;;;;;;;;5029494;28;20150;-67
2023/01/01 00:34:37;;;;;;;14.85;2.67;;;;;;;;;;5032028;28;20563;-67
2023/01/01 00:37:03;;;;;;;23.35;3.10;;;;;;;;;;5032401;28;20026;-67
2023/01/01 00:39:29;;;;;;;18.13;2.30;;;;;;;;;;5032497;28;20041;-67
2023/01/01 00:41:56;;;;;;;10.93;2.33;;;;;;;;;;5032241;28;20037;-67
2023/01/01 00:44:22;;;;;;;15.57;2.42;;;;;;;;;;5032484;28;20022;-67
2023/01/01 00:46:48;;;;;;;17.67;2.80;;;;;;;;;;5032475;28;20108;-67
2023/01/01 00:49:14;;;;;;;13.48;2.50;;;;;;;;;;5032308;28;20029;-67
2023/01/01 00:51:40;;;;;;;20.00;2.80;;;;;;;;;;5032423;28;20029;-67
2023/01/01 00:54:06;;;;;;;14.30;2.30;;;;;;;;;;5031988;28;20096;-67
2023/01/01 00:56:32;;;;;;;11.10;3.08;;;;;;;;;;5032389;28;20033;-67
2023/01/01 00:58:58;;;;;;;16.02;2.50;;;;;;;;;;5032271;28;20029;-67
2023/01/01 01:01:25;;;;;;;15.23;2.65;;;;;;;;;;5032398;28;20041;-67
2023/01/01 01:03:51;;;;;;;18.77;2.38;;;;;;;;;;5032084;28;20071;-67
2023/01/01 01:06:18;;;;;;;17.55;2.38;;;;;;;;;;5031981;28;20021;-67
2023/01/01 01:08:45;;;;;;;15.30;2.72;;;;;;;;;;5032271;28;20044;-67
2023/01/01 01:11:13;;;;;;;19.27;2.78;;;;;;;;;;5032119;28;20029;-67
2023/01/01 01:13:39;;;;;;;23.42;2.80;;;;;;;;;;5032299;28;20072;-67
2023/01/01 01:16:10;;;;;;;21.33;2.70;;;;;;;;;;5032067;28;20041;-67
2023/01/01 01:18:36;;;;;;;21.60;3.38;;;;;;;;;;5032197;28;20026;-67
2023/01/01 01:21:02;;;;;;;16.17;3.47;;;;;;;;;;5031804;28;20079;-67
2023/01/01 01:23:28;;;;;;;20.65;3.17;;;;;;;;;;5032137;28;20083;-67
2023/01/01 01:25:55;;;;;;;12.63;2.58;;;;;;;;;;5031148;28;20432;-67
2023/01/01 01:28:21;;;;;;;21.23;6.28;;;;;;;;;;5035450;28;21131;-67
2023/01/01 01:30:47;;;;;;;17.10;3.60;;;;;;;;;;5035610;28;20100;-67
2023/01/01 01:33:13;;;;;;;23.88;3.70;;;;;;;;;;5032424;28;20521;-67
2023/01/01 01:35:39;;;;;;;22.08;3.60;;;;;;;;;;5035503;28;20040;-67
2023/01/01 01:38:05;;;;;;;26.27;4.05;;;;;;;;;;5035279;28;20084;-67
2023/01/01 01:40:32;;;;;;;23.13;3.63;;;;;;;;;;5035398;28;20444;-66
2023/01/01 01:42:58;;;;;;;19.55;3.72;;;;;;;;;;5034207;28;20034;-67
2023/01/01 01:45:24;;;;;;;23.92;3.20;;;;;;;;;;5035327;28;20021;-67
2023/01/01 01:47:56;;;;;;;24.60;4.88;;;;;;;;;;5035203;28;20116;-67
2023/01/01 01:50:30;;;;;;;29.35;3.65;;;;;;;;;;5034789;28;20105;-67
2023/01/01 01:52:59;;;;;;;20.15;3.65;;;;;;;;;;5035125;28;20044;-67
2023/01/01 01:55:27;;;;;;;17.75;3.55;;;;;;;;;;5034847;28;20033;-67
2023/01/01 01:57:53;;;;;;;27.02;3.72;;;;;;;;;;5034980;28;20063;-67
2023/01/01 02:00:20;;;;;;;29.05;3.40;;;;;;;;;;5034567;28;20484;-67
2023/01/01 02:02:50;;;;;;;17.30;3.53;;;;;;;;;;5034730;28;20022;-67
2023/01/01 02:05:18;;;;;;;27.25;3.88;;;;;;;;;;5032970;28;20033;-67
2023/01/01 02:07:44;;;;;;;22.38;4.38;;;;;;;;;;5034890;28;20013;-67
2023/01/01 02:10:11;;;;;;;24.30;4.15;;;;;;;;;;5034962;28;20112;-67
2023/01/01 02:12:37;;;;;;;21.95;3.78;;;;;;;;;;5035031;28;20029;-67
2023/01/01 02:15:03;;;;;;;30.50;6.82;;;;;;;;;;5034970;28;20030;-67
2023/01/01 02:17:29;;;;;;;24.02;4.70;;;;;;;;;;5034872;28;20025;-67
2023/01/01 02:20:01;;;;;;;28.42;4.25;;;;;;;;;;5034649;28;20040;-67
2023/01/01 02:22:32;;;;;;;28.00;3.97;;;;;;;;;;5034616;28;20037;-67
2023/01/01 02:25:04;;;;;;;20.13;3.65;;;;;;;;;;5034459;28;20022;-67
2023/01/01 02:27:33;;;;;;;25.20;5.40;;;;;;;;;;5034936;28;20033;-67
2023/01/01 02:30:04;;;;;;;24.48;4.53;;;;;;;;;;5034477;28;20496;-67
2023/01/01 02:32:33;;;;;;;24.35;3.97;;;;;;;;;;5034493;28;20025;-67
2023/01/01 02:37:49;;;;;;;22.95;4.90;;;;;;;;;;5033320;28;20066;-67
2023/01/01 02:40:15;;;;;;;25.77;5.60;;;;;;;;;;5034244;28;20021;-67
2023/01/01 02:42:42;;;;;;;29.25;3.75;;;;;;;;;;5033143;28;20108;-67
2023/01/01 02:45:08;;;;;;;28.45;4.05;;;;;;;;;;5033710;28;20079;-67
2023/01/01 02:47:34;;;;;;;24.08;4.38;;;;;;;;;;5033301;28;20032;-67
2023/01/01 02:50:04;;;;;;;23.30;4.38;;;;;;;;;;5033527;28;20025;-67
2023/01/01 02:52:45;;;;;;;30.40;3.90;;;;;;;;;;5033939;28;20029;-67
2023/01/01 02:55:47;;;;;;;24.00;3.75;;;;;;;;;;5033805;28;20029;-67
2023/01/01 03:01:07;;;;;;;19.38;3.58;;;;;;;;;;5051262;28;20147;-67
2023/01/01 03:03:41;;;;;;;19.27;4.13;;;;;;;;;;5051396;28;20064;-67
2023/01/01 03:06:23;;;;;;;25.90;4.28;;;;;;;;;;5051521;28;20037;-67
2023/01/01 03:08:57;;;;;;;28.80;4.38;;;;;;;;;;5051558;28;20396;-67
2023/01/01 03:11:24;;;;;;;20.63;4.45;;;;;;;;;;5051555;28;20035;-67
2023/01/01 03:14:02;;;;;;;27.60;4.85;;;;;;;;;;5051617;28;20045;-67
2023/01/01 03:16:34;;;;;;;20.08;4.13;;;;;;;;;;5034558;28;20451;-67
2023/01/01 03:19:18;;;;;;;26.55;4.60;;;;;;;;;;5034445;28;20421;-67
2023/01/01 03:21:45;;;;;;;28.63;3.92;;;;;;;;;;5051286;28;20029;-67
2023/01/01 03:24:40;;;;;;;18.35;3.85;;;;;;;;;;5051303;28;20036;-67
2023/01/01 03:27:12;;;;;;;23.85;4.47;;;;;;;;;;5034671;28;20129;-67
2023/01/01 03:29:40;;;;;;;28.60;4.38;;;;;;;;;;5051110;28;20029;-67
2023/01/01 03:32:08;;;;;;;31.48;5.10;;;;;;;;;;5042394;28;20038;-67
2023/01/01 03:34:39;;;;;;;27.02;4.80;;;;;;;;;;5033311;28;20080;-67
2023/01/01 03:37:07;;;;;;;23.85;3.83;;;;;;;;;;5033262;28;20044;-67
2023/01/01 03:39:36;;;;;;;24.88;4.88;;;;;;;;;;5033374;28;20033;-67
2023/01/01 03:42:14;;;;;;;27.55;4.95;;;;;;;;;;5033494;28;20370;-67
2023/01/01 03:44:49;;;;;;;36.15;4.80;;;;;;;;;;5033345;28;20140;-67
2023/01/01 03:47:15;;;;;;;37.95;4.63;;;;;;;;;;5032753;28;20409;-67
2023/01/01 03:49:42;;;;;;;33.95;4.57;;;;;;;;;;5031826;28;20025;-67
2023/01/01 03:52:26;;;;;;;28.63;5.63;;;;;;;;;;5029568;28;20025;-67
2023/01/01 03:54:53;;;;;;;25.55;4.88;;;;;;;;;;5019591;28;20033;-67
2023/01/01 03:57:19;;;;;;;29.23;4.65;;;;;;;;;;5032656;28;20029;-67
2023/01/01 03:59:45;;;;;;;29.48;4.85;;;;;;;;;;5032796;28;20033;-67
2023/01/01 04:02:13;;;;;;;34.88;5.70;;;;;;;;;;5032489;28;20025;-67
2023/01/01 04:04:40;;;;;;;25.98;5.72;;;;;;;;;;5032880;28;20025;-67
2023/01/01 04:07:06;;;;;;;44.13;5.15;;;;;;;;;;5032408;28;20029;-67
2023/01/01 04:09:34;;;;;;;28.25;4.45;;;;;;;;;;5022504;28;20463;-67
2023/01/01 04:12:00;;;;;;;24.10;4.47;;;;;;;;;;5013199;28;20552;-67
2023/01/01 04:14:28;;;;;;;27.20;4.60;;;;;;;;;;5031683;28;20087;-67
2023/01/01 04:16:55;;;;;;;42.92;5.85;;;;;;;;;;5032329;28;20022;-67
2023/01/01 04:19:21;;;;;;;25.35;4.75;;;;;;;;;;5032604;28;20033;-67
2023/01/01 04:21:47;;;;;;;34.22;6.35;;;;;;;;;;5032706;28;20447;-67
2023/01/01 04:24:13;;;;;;;39.95;5.80;;;;;;;;;;5032352;28;20097;-67
2023/01/01 04:26:40;;;;;;;44.20;6.97;;;;;;;;;;5032182;28;20022;-67
2023/01/01 04:29:06;;;;;;;28.00;5.38;;;;;;;;;;5031356;28;20029;-67
2023/01/01 04:31:33;;;;;;;29.92;5.45;;;;;;;;;;5032179;28;20155;-67
2023/01/01 04:33:59;;;;;;;45.10;6.97;;;;;;;;;;5027414;28;20050;-67
2023/01/01 04:36:25;;;;;;;29.40;5.25;;;;;;;;;;5032169;28;20116;-67
2023/01/01 04:38:51;;;;;;;29.90;6.35;;;;;;;;;;5032557;28;20048;-67
2023/01/01 04:41:17;;;;;;;32.90;5.78;;;;;;;;;;5031830;28;20549;-67
2023/01/01 04:43:49;;;;;;;41.72;7.10;;;;;;;;;;5032466;28;20527;-67
2023/01/01 04:46:16;;;;;;;37.63;7.17;;;;;;;;;;5032278;28;20042;-67
2023/01/01 04:48:42;;;;;;;30.35;5.20;;;;;;;;;;5032658;28;20108;-67
2023/01/01 04:51:09;;;;;;;37.95;6.40;;;;;;;;;;5032679;28;20034;-67
2023/01/01 04:53:35;;;;;;;34.63;4.85;;;;;;;;;;5031661;28;20029;-67
2023/01/01 04:56:05;;;;;;;38.47;5.65;;;;;;;;;;5032505;28;20025;-65
2023/01/01 04:58:31;;;;;;;28.48;4.18;;;;;;;;;;5027422;28;20041;-65
2023/01/01 05:00:57;;;;;;;27.38;4.35;;;;;;;;;;5032316;28;20504;-65
2023/01/01 05:03:23;;;;;;;25.00;4.20;;;;;;;;;;5035976;28;20029;-65
2023/01/01 05:06:04;;;;;;;32.38;5.60;;;;;;;;;;5036154;28;20064;-65
2023/01/01 05:08:31;;;;;;;23.95;4.10;;;;;;;;;;5036065;28;20496;-65
2023/01/01 05:11:04;;;;;;;27.80;4.65;;;;;;;;;;5036356;28;20033;-65
2023/01/01 05:13:35;;;;;;;22.23;4.72;;;;;;;;;;5035347;28;20109;-64
2023/01/01 05:16:02;;;;;;;28.52;4.07;;;;;;;;;;5034975;28;20120;-65
2023/01/01 05:18:28;;;;;;;27.38;5.60;;;;;;;;;;5016036;28;20381;-65
2023/01/01 05:20:59;;;;;;;28.92;4.78;;;;;;;;;;5016185;28;20113;-65
2023/01/01 05:23:25;;;;;;;29.98;4.45;;;;;;;;;;5016093;28;20124;-65
2023/01/01 05:25:51;;;;;;;25.10;4.63;;;;;;;;;;5015961;28;20062;-65
2023/01/01 05:28:17;;;;;;;27.08;4.40;;;;;;;;;;5017789;28;20038;-65
2023/01/01 05:30:43;;;;;;;35.90;4.82;;;;;;;;;;5035738;28;20026;-65
2023/01/01 05:33:09;;;;;;;26.63;4.65;;;;;;;;;;5035572;28;20424;-65
2023/01/01 05:35:36;;;;;;;38.63;5.22;;;;;;;;;;5035306;28;20029;-65
2023/01/01 05:38:02;;;;;;;27.33;4.20;;;;;;;;;;5035569;28;20032;-65
2023/01/01 05:40:29;;;;;;;26.35;4.32;;;;;;;;;;5035509;28;20152;-65
2023/01/01 05:42:55;;;;;;;26.88;4.03;;;;;;;;;;5035257;28;20531;-65
2023/01/01 05:45:21;;;;;;;21.92;3.95;;;;;;;;;;5035448;28;20100;-65
2023/01/01 05:47:47;;;;;;;22.90;4.15;;;;;;;;;;5035463;28;20040;-65
2023/01/01 05:50:13;;;;;;;30.20;4.72;;;;;;;;;;5035532;28;20025;-65
2023/01/01 05:52:39;;;;;;;28.20;4.18;;;;;;;;;;5035844;28;20033;-65
2023/01/01 05:55:06;;;;;;;23.90;4.20;;;;;;;;;;5045415;28;20567;-66
2023/01/01 05:57:32;;;;;;;30.10;4.15;;;;;;;;;;5034506;28;20513;-66
2023/01/01 05:59:58;;;;;;;20.05;4.30;;;;;;;;;;5025903;28;20026;-65
2023/01/01 06:02:24;;;;;;;24.77;4.20;;;;;;;;;;5031414;28;20029;-66
2023/01/01 06:04:50;;;;;;;21.13;4.03;;;;;;;;;;5035029;28;20386;-66
2023/01/01 06:07:16;;;;;;;20.83;4.13;;;;;;;;;;5035026;28;20041;-65
2023/01/01 06:09:42;;;;;;;40.13;8.32;;;;;;;;;;5034265;28;20030;-65
2023/01/01 06:12:09;;;;;;;29.38;4.78;;;;;;;;;;5034342;28;20041;-64
2023/01/01 06:14:35;;;;;;;25.17;5.80;;;;;;;;;;5034882;28;20056;-65
2023/01/01 06:17:01;;;;;;;27.60;4.72;;;;;;;;;;5035023;28;20517;-65
2023/01/01 06:19:27;;;;;;;26.55;4.40;;;;;;;;;;5034076;28;20111;-65
2023/01/01 06:21:53;;;;;;;34.95;5.38;;;;;;;;;;5034825;28;20029;-65
2023/01/01 06:24:19;;;;;;;36.60;7.80;;;;;;;;;;5034819;28;20523;-65
2023/01/01 06:26:45;;;;;;;24.65;4.93;;;;;;;;;;5033754;28;20026;-65
2023/01/01 06:29:12;;;;;;;39.65;5.50;;;;;;;;;;5034839;28;20033;-65
2023/01/01 06:31:38;;;;;;;34.63;6.13;;;;;;;;;;5034436;28;20034;-65
2023/01/01 06:34:04;;;;;;;33.72;5.65;;;;;;;;;;5034486;28;20056;-65
2023/01/01 06:36:30;;;;;;;37.28;6.30;;;;;;;;;;5034475;28;20034;-65
2023/01/01 06:38:58;;;;;;;38.28;6.50;;;;;;;;;;5040158;28;20056;-64
2023/01/01 06:41:26;;;;;;;32.20;5.03;;;;;;;;;;5052187;28;20091;-65
2023/01/01 06:43:52;;;;;;;32.63;5.22;;;;;;;;;;5031710;28;20497;-65
2023/01/01 06:46:18;;;;;;;36.58;5.18;;;;;;;;;;5034352;28;20029;-65
2023/01/01 06:48:45;;;;;;;45.92;5.93;;;;;;;;;;5033759;28;20033;-65
2023/01/01 06:51:12;;;;;;;34.22;5.25;;;;;;;;;;5033973;28;20026;-64
2023/01/01 06:53:38;;;;;;;35.75;5.75;;;;;;;;;;5030026;28;20026;-64
2023/01/01 06:56:05;;;;;;;33.13;5.82;;;;;;;;;;5034630;28;20116;-65
2023/01/01 06:58:31;;;;;;;32.45;6.55;;;;;;;;;;5030264;28;20040;-65
2023/01/01 07:01:07;;;;;;;41.25;5.60;;;;;;;;;;5033335;28;20461;-65
2023/01/01 07:03:34;;;;;;;35.00;5.18;;;;;;;;;;5037359;28;20067;-65
2023/01/01 07:06:00;;;;;;;33.10;5.57;;;;;;;;;;5033641;28;20695;-65
2023/01/01 07:08:27;;;;;;;37.03;5.38;;;;;;;;;;5039997;28;20025;-65
2023/01/01 07:10:56;;;;;;;39.05;5.93;;;;;;;;;;5036172;28;20029;-65
2023/01/01 07:13:22;;;;;;;37.05;5.22;;;;;;;;;;5041402;28;20034;-65
2023/01/01 07:15:48;;;;;;;34.15;5.97;;;;;;;;;;5040803;28;20013;-65
2023/01/01 07:18:14;;;;;;;46.35;8.68;;;;;;;;;;5037856;28;20039;-65
2023/01/01 07:20:40;;;;;;;40.03;6.13;;;;;;;;;;5038136;28;20028;-65
2023/01/01 07:23:06;;;;;;;34.85;5.78;;;;;;;;;;5035568;28;20075;-65
2023/01/01 07:25:32;;;;;;;42.25;5.90;;;;;;;;;;5040045;28;20009;-65
2023/01/01 07:27:58;;;;;;;34.95;5.68;;;;;;;;;;5036694;28;20033;-65
2023/01/01 07:30:24;;;;;;;42.00;5.93;;;;;;;;;;5036245;28;20447;-65
2023/01/01 07:32:54;;;;;;;37.80;6.88;;;;;;;;;;5039575;28;20033;-65
2023/01/01 07:35:20;;;;;;;40.03;6.22;;;;;;;;;;5039508;28;20053;-65
2023/01/01 07:37:46;;;;;;;46.88;6.30;;;;;;;;;;5035249;28;20028;-65
2023/01/01 07:40:13;;;;;;;51.67;7.10;;;;;;;;;;5033248;28;20040;-65
2023/01/01 07:42:39;;;;;;;36.60;6.68;;;;;;;;;;5023504;28;20060;-65
2023/01/01 07:45:05;;;;;;;46.78;6.10;;;;;;;;;;5026644;28;20060;-65
2023/01/01 07:47:31;;;;;;;41.95;7.25;;;;;;;;;;5027176;28;20021;-66
2023/01/01 07:49:58;;;;;;;33.00;5.80;;;;;;;;;;5023435;28;20482;-66
2023/01/01 07:52:24;;;;;;;37.17;5.35;;;;;;;;;;5021747;28;20113;-66
2023/01/01 07:54:50;;;;;;;33.53;6.20;;;;;;;;;;5021857;28;20017;-66
2023/01/01 07:57:16;;;;;;;40.05;6.40;;;;;;;;;;5023879;28;20017;-66
2023/01/01 07:59:42;;;;;;;42.83;8.95;;;;;;;;;;5023276;28;20029;-66
2023/01/01 08:02:11;;;;;;;34.15;5.70;;;;;;;;;;5030646;28;20026;-66
2023/01/01 08:04:37;;;;;;;56.50;7.07;;;;;;;;;;5031460;28;20041;-66
2023/01/01 08:07:03;;;;;;;42.33;7.18;;;;;;;;;;5030754;28;20033;-66
2023/01/01 08:09:30;;;;;;;39.45;6.28;;;;;;;;;;5036823;28;20421;-66
2023/01/01 08:11:57;;;;;;;42.00;6.10;;;;;;;;;;5030878;28;20030;-66
2023/01/01 08:14:27;;;;;;;35.85;5.97;;;;;;;;;;5031441;28;20038;-67
2023/01/01 08:16:53;;;;;;;39.55;7.32;;;;;;;;;;5024653;28;20044;-67
2023/01/01 08:19:19;;;;;;;31.23;6.28;;;;;;;;;;5030852;28;20466;-67
2023/01/01 08:21:45;;;;;;;42.85;6.32;;;;;;;;;;5026569;28;20026;-67
2023/01/01 08:24:11;;;;;;;35.10;6.18;;;;;;;;;;5019638;28;20473;-67
2023/01/01 08:26:38;;;;;;;50.38;6.45;;;;;;;;;;5029021;28;20025;-67
2023/01/01 08:29:05;;;;;;;39.65;7.97;;;;;;;;;;5027155;28;20033;-67
2023/01/01 08:31:32;;;;;;;45.85;8.13;;;;;;;;;;5024208;28;20454;-67
2023/01/01 08:33:58;;;;;;;43.03;9.25;;;;;;;;;;5021405;28;20048;-67
2023/01/01 08:36:24;;;;;;;52.33;11.60;;;;;;;;;;5029915;28;20033;-67
2023/01/01 08:38:50;;;;;;;43.30;9.88;;;;;;;;;;5022491;28;20025;-67
2023/01/01 08:41:16;;;;;;;54.15;10.32;;;;;;;;;;5025425;28;20033;-67
2023/01/01 08:43:42;;;;;;;53.63;9.13;;;;;;;;;;5033528;28;20061;-68
2023/01/01 08:46:09;;;;;;;43.90;7.88;;;;;;;;;;5026096;28;20022;-68
2023/01/01 08:48:35;;;;;;;36.88;7.95;;;;;;;;;;5027290;28;20021;-67
2023/01/01 08:51:01;;;;;;;51.40;8.90;;;;;;;;;;5022816;28;20109;-67
2023/01/01 08:53:28;;;;;;;55.92;8.63;;;;;;;;;;5029234;28;20036;-67
2023/01/01 08:56:05;;;;;;;35.97;7.25;;;;;;;;;;5030100;28;20040;-67
2023/01/01 08:58:32;;;;;;;49.95;9.45;;;;;;;;;;5030909;28;20025;-67
2023/01/01 09:00:58;;;;;;;47.20;7.40;;;;;;;;;;5029498;28;20084;-67
2023/01/01 09:03:25;;;;;;;43.05;6.07;;;;;;;;;;5029943;28;20037;-67
2023/01/01 09:05:52;;;;;;;39.13;5.50;;;;;;;;;;5018322;28;20022;-67
2023/01/01 09:08:18;;;;;;;46.35;6.35;;;;;;;;;;5019781;28;20038;-67
2023/01/01 09:10:44;;;;;;;44.72;6.25;;;;;;;;;;5030115;28;20096;-68
2023/01/01 09:13:11;;;;;;;36.95;6.05;;;;;;;;;;5025744;28;20024;-68
2023/01/01 09:15:38;;;;;;;37.88;7.35;;;;;;;;;;5028803;28;20030;-68
2023/01/01 09:18:04;;;;;;;41.45;6.18;;;;;;;;;;5027248;28;20035;-68
2023/01/01 09:20:30;;;;;;;39.30;6.60;;;;;;;;;;5024791;28;20026;-68
2023/01/01 09:22:57;;;;;;;36.05;7.40;;;;;;;;;;5018722;28;20021;-68
2023/01/01 09:25:23;;;;;;;46.72;7.53;;;;;;;;;;5024071;28;20351;-68
2023/01/01 09:27:49;;;;;;;32.08;5.95;;;;;;;;;;5019603;28;20030;-68
2023/01/01 09:30:15;;;;;;;52.38;7.00;;;;;;;;;;5027446;28;20032;-68
2023/01/01 09:32:41;;;;;;;37.22;7.55;;;;;;;;;;5037029;28;20398;-68
2023/01/01 09:35:08;;;;;;;42.17;7.88;;;;;;;;;;5031217;28;20057;-68
2023/01/01 09:37:34;;;;;;;40.80;7.78;;;;;;;;;;5032631;28;20487;-67
2023/01/01 09:40:00;;;;;;;49.00;9.15;;;;;;;;;;5035408;28;20025;-67
2023/01/01 09:42:35;;;;;;;40.35;7.03;;;;;;;;;;5035245;28;20037;-67
2023/01/01 09:45:01;;;;;;;48.10;6.20;;;;;;;;;;5025278;28;20041;-67
2023/01/01 09:47:33;;;;;;;45.10;8.27;;;;;;;;;;5031578;28;20084;-68
2023/01/01 09:50:02;;;;;;;41.03;6.20;;;;;;;;;;5034889;28;20458;-68
2023/01/01 09:52:35;;;;;;;41.60;5.80;;;;;;;;;;5033878;28;20278;-68
2023/01/01 09:55:03;;;;;;;46.50;6.93;;;;;;;;;;5023722;28;20032;-68
2023/01/01 09:57:31;;;;;;;31.75;6.32;;;;;;;;;;5027837;28;20071;-68
2023/01/01 09:59:59;;;;;;;42.00;6.18;;;;;;;;;;5023795;28;20037;-68
2023/01/01 10:02:43;;;;;;;39.55;7.15;;;;;;;;;;5023815;28;20010;-67
2023/01/01 10:05:12;;;;;;;47.78;6.13;;;;;;;;;;5025711;28;20028;-67
2023/01/01 10:07:38;;;;;;;43.47;6.47;;;;;;;;;;5032370;28;20028;-67
2023/01/01 10:10:17;;;;;;;33.53;6.10;;;;;;;;;;5018169;28;20475;-67
2023/01/01 10:12:53;;;;;;;39.17;6.18;;;;;;;;;;5022203;28;20113;-67
2023/01/01 10:15:22;;;;;;;35.92;6.20;;;;;;;;;;5024639;28;20112;-67
2023/01/01 10:17:51;;;;;;;48.92;7.05;;;;;;;;;;5026185;28;20022;-67
2023/01/01 10:20:24;;;;;;;39.00;6.28;;;;;;;;;;5022443;28;20137;-68
2023/01/01 10:23:13;;;;;;;38.10;6.68;;;;;;;;;;5033295;28;20036;-68
2023/01/01 10:25:40;;;;;;;52.28;7.07;;;;;;;;;;5019765;28;20045;-67
2023/01/01 10:28:12;;;;;;;41.03;7.68;;;;;;;;;;5023672;28;20018;-67
2023/01/01 10:30:40;;;;;;;36.08;7.28;;;;;;;;;;5026769;28;20423;-67
2023/01/01 10:33:09;;;;;;;38.72;8.23;;;;;;;;;;5024870;28;20053;-67
2023/01/01 10:35:39;;;;;;;32.70;6.45;;;;;;;;;;5018020;28;20049;-67
2023/01/01 10:38:05;;;;;;;46.35;7.30;;;;;;;;;;5022811;28;20033;-67
2023/01/01 10:40:31;;;;;;;33.53;6.72;;;;;;;;;;5021587;28;20347;-67
2023/01/01 10:42:59;;;;;;;38.60;7.35;;;;;;;;;;5028707;28;20057;-67
2023/01/01 10:45:25;;;;;;;41.15;7.40;;;;;;;;;;5022246;28;20026;-67
2023/01/01 10:48:10;;;;;;;44.75;7.82;;;;;;;;;;5028058;28;20034;-67
2023/01/01 10:50:42;;;;;;;48.10;6.95;;;;;;;;;;5032835;28;20041;-67
2023/01/01 10:53:27;;;;;;;53.35;10.23;;;;;;;;;;5024926;28;20489;-67
2023/01/01 10:56:12;;;;;;;31.48;5.30;;;;;;;;;;5032476;28;20421;-67
2023/01/01 10:58:49;;;;;;;42.35;6.55;;;;;;;;;;5016197;28;20445;-67
2023/01/01 11:01:21;;;;;;;38.65;7.15;;;;;;;;;;5026690;28;20038;-67
2023/01/01 11:04:23;;;;;;;42.40;6.30;;;;;;;;;;5022399;28;20506;-67
2023/01/01 11:06:49;;;;;;;53.50;7.07;;;;;;;;;;5049775;28;20378;-67
2023/01/01 11:09:24;;;;;;;39.28;7.13;;;;;;;;;;5048151;28;20029;-67
2023/01/01 11:11:56;;;;;;;50.05;6.43;;;;;;;;;;5050235;28;20032;-67
2023/01/01 11:14:27;;;;;;;29.35;5.57;;;;;;;;;;5050223;28;20485;-67
2023/01/01 11:16:54;;;;;;;38.90;6.05;;;;;;;;;;5049921;28;20037;-67
2023/01/01 11:19:23;;;;;;;29.38;5.90;;;;;;;;;;5049926;28;20399;-67
2023/01/01 11:21:49;;;;;;;40.85;6.32;;;;;;;;;;5049325;28;20075;-67
2023/01/01 11:24:21;;;;;;;42.70;6.65;;;;;;;;;;5049810;28;20036;-68
2023/01/01 11:26:50;;;;;;;47.85;6.90;;;;;;;;;;5049412;28;20033;-68
2023/01/01 11:29:16;;;;;;;40.17;6.30;;;;;;;;;;5049493;28;20033;-68
2023/01/01 11:31:43;;;;;;;44.85;6.80;;;;;;;;;;5049293;28;20029;-68
2023/01/01 11:34:25;;;;;;;44.55;6.20;;;;;;;;;;5049636;28;20037;-68
2023/01/01 11:36:52;;;;;;;32.08;5.88;;;;;;;;;;5049370;28;20067;-68
2023/01/01 11:39:26;;;;;;;29.33;5.30;;;;;;;;;;5049443;28;20043;-67
2023/01/01 11:41:56;;;;;;;30.25;5.30;;;;;;;;;;5022249;28;20116;-67
2023/01/01 11:44:31;;;;;;;21.98;5.25;;;;;;;;;;5028667;28;20107;-67
2023/01/01 11:46:57;;;;;;;22.60;4.30;;;;;;;;;;5022224;28;20037;-67
2023/01/01 11:49:26;;;;;;;22.58;4.88;;;;;;;;;;5025374;28;20018;-67
2023/01/01 11:51:52;;;;;;;20.52;5.28;;;;;;;;;;5015675;28;20026;-67
2023/01/01 11:54:18;;;;;;;23.00;5.15;;;;;;;;;;5017363;28;20397;-67
2023/01/01 11:56:44;;;;;;;21.88;5.57;;;;;;;;;;5028668;28;20087;-67
2023/01/01 11:59:20;;;;;;;19.70;3.30;;;;;;;;;;5021286;28;20032;-67
2023/01/01 12:01:52;;;;;;;15.65;4.00;;;;;;;;;;5018775;28;20076;-67
2023/01/01 12:04:18;;;;;;;21.10;4.18;;;;;;;;;;5029670;28;20030;-67
2023/01/01 12:06:47;;;;;;;21.75;4.28;;;;;;;;;;5022527;28;20083;-67
2023/01/01 12:09:15;;;;;;;18.40;4.63;;;;;;;;;;5023866;28;20025;-68
2023/01/01 12:11:47;;;;;;;25.23;5.47;;;;;;;;;;5020166;28;20417;-67
2023/01/01 12:14:34;;;;;;;20.88;4.78;;;;;;;;;;5028017;28;20039;-67
2023/01/01 12:17:09;;;;;;;20.77;5.15;;;;;;;;;;5020365;28;20034;-66
2023/01/01 12:19:39;;;;;;;25.30;4.75;;;;;;;;;;5021782;28;20040;-66
2023/01/01 12:22:11;;;;;;;29.48;4.90;;;;;;;;;;5024925;28;20087;-66
2023/01/01 12:24:37;;;;;;;16.55;4.35;;;;;;;;;;5030518;28;20035;-66
2023/01/01 12:27:03;;;;;;;21.52;5.40;;;;;;;;;;5021467;28;20021;-67
2023/01/01 12:29:29;;;;;;;20.73;4.38;;;;;;;;;;5018470;28;20117;-66
2023/01/01 12:31:58;;;;;;;21.40;4.18;;;;;;;;;;5019436;28;20037;-66
2023/01/01 12:34:36;;;;;;;16.25;3.28;;;;;;;;;;5026999;28;20080;-66
2023/01/01 12:37:14;;;;;;;18.42;3.63;;;;;;;;;;5028679;28;20041;-66
2023/01/01 12:40:11;;;;;;;15.68;4.18;;;;;;;;;;5024295;28;20045;-66
2023/01/01 12:43:00;;;;;;;19.17;4.50;;;;;;;;;;5020109;28;20128;-68
2023/01/01 12:45:39;;;;;;;15.85;3.03;;;;;;;;;;5019459;28;20474;-67
2023/01/01 12:48:05;;;;;;;14.90;2.88;;;;;;;;;;5030225;28;20075;-67
2023/01/01 12:50:34;;;;;;;16.30;3.22;;;;;;;;;;5016869;28;20022;-67
2023/01/01 12:53:20;;;;;;;14.80;3.13;;;;;;;;;;5017192;28;20017;-67
2023/01/01 12:56:04;;;;;;;11.10;3.60;;;;;;;;;;5030453;28;20393;-66
2023/01/01 12:58:32;;;;;;;13.07;2.97;;;;;;;;;;5024246;28;20464;-67
2023/01/01 13:01:00;;;;;;;12.63;2.15;;;;;;;;;;5029847;28;20048;-67
2023/01/01 13:03:32;;;;;;;18.60;2.90;;;;;;;;;;5020653;28;20504;-67
2023/01/01 13:05:59;;;;;;;11.38;3.03;;;;;;;;;;5021569;28;20112;-67
2023/01/01 13:08:25;;;;;;;12.60;3.15;;;;;;;;;;5030349;28;20022;-67
2023/01/01 13:10:52;;;;;;;13.73;2.80;;;;;;;;;;5022287;28;20024;-67
2023/01/01 13:13:18;;;;;;;16.05;4.22;;;;;;;;;;5024522;28;20037;-67
2023/01/01 13:15:47;;;;;;;20.70;7.75;;;;;;;;;;5019673;28;20053;-67
2023/01/01 13:18:13;;;;;;;14.43;4.80;;;;;;;;;;5018678;28;20030;-67
2023/01/01 13:20:44;;;;;;;16.40;4.35;;;;;;;;;;5028656;28;21035;-67
2023/01/01 13:23:30;;;;;;;23.13;5.80;;;;;;;;;;5026803;28;20033;-67
2023/01/01 13:26:15;;;;;;;11.90;3.22;;;;;;;;;;5018335;28;20030;-67
2023/01/01 13:28:41;;;;;;;14.65;3.35;;;;;;;;;;5029322;28;20072;-64
2023/01/01 13:31:07;;;;;;;12.95;3.53;;;;;;;;;;5025364;28;20048;-64
2023/01/01 13:33:35;;;;;;;11.38;3.22;;;;;;;;;;5033158;28;20095;-64
2023/01/01 13:36:08;;;;;;;18.70;4.10;;;;;;;;;;5030651;28;20026;-64
2023/01/01 13:38:51;;;;;;;14.45;4.07;;;;;;;;;;5030809;28;20022;-64
2023/01/01 13:41:27;;;;;;;8.60;3.15;;;;;;;;;;5024847;28;20109;-64
2023/01/01 13:43:59;;;;;;;13.82;3.95;;;;;;;;;;5024199;28;20456;-64
2023/01/01 13:46:43;;;;;;;16.30;3.37;;;;;;;;;;5028974;28;20803;-64
2023/01/01 13:49:29;;;;;;;16.83;3.17;;;;;;;;;;5026486;28;20032;-64
2023/01/01 13:52:13;;;;;;;14.88;2.92;;;;;;;;;;5025426;28;20065;-64
2023/01/01 13:54:42;;;;;;;17.25;3.28;;;;;;;;;;5028238;28;20499;-64
2023/01/01 13:57:26;;;;;;;10.85;2.72;;;;;;;;;;5024487;28;20029;-64
2023/01/01 13:59:56;;;;;;;18.48;3.38;;;;;;;;;;5020706;28;20030;-64
2023/01/01 14:02:26;;;;;;;13.70;3.05;;;;;;;;;;5028231;28;20072;-64
2023/01/01 14:04:58;;;;;;;12.30;3.30;;;;;;;;;;5029651;28;20021;-64
2023/01/01 14:07:30;;;;;;;13.10;3.17;;;;;;;;;;5034046;28;20033;-64
2023/01/01 14:10:17;;;;;;;17.52;3.85;;;;;;;;;;5033026;28;20037;-64
2023/01/01 14:12:43;;;;;;;11.75;2.90;;;;;;;;;;5034658;28;20029;-64
2023/01/01 14:15:23;;;;;;;12.50;3.30;;;;;;;;;;5034589;28;20025;-64
2023/01/01 14:17:49;;;;;;;16.10;2.40;;;;;;;;;;5023623;28;20030;-64
2023/01/01 14:20:18;;;;;;;17.00;2.95;;;;;;;;;;5034177;28;20417;-64
2023/01/01 14:22:45;;;;;;;16.63;3.83;;;;;;;;;;5034687;28;20040;-65
2023/01/01 14:25:25;;;;;;;14.02;3.60;;;;;;;;;;5033178;28;20014;-64
2023/01/01 14:27:52;;;;;;;8.23;3.00;;;;;;;;;;5034227;28;20029;-64
2023/01/01 14:30:18;;;;;;;7.63;2.28;;;;;;;;;;5034078;28;20033;-65
2023/01/01 14:32:45;;;;;;;13.00;3.80;;;;;;;;;;5033371;28;20029;-64
2023/01/01 14:35:14;;;;;;;13.18;3.13;;;;;;;;;;5030580;28;20125;-64
2023/01/01 14:37:40;;;;;;;13.27;2.50;;;;;;;;;;5025776;28;20098;-64
2023/01/01 14:40:12;;;;;;;12.98;3.00;;;;;;;;;;5024835;28;20476;-64
2023/01/01 14:42:39;;;;;;;17.47;3.23;;;;;;;;;;5026132;28;20033;-64
2023/01/01 14:45:06;;;;;;;14.48;4.50;;;;;;;;;;5033533;28;20026;-64
2023/01/01 14:47:33;;;;;;;16.45;3.67;;;;;;;;;;5031434;28;20366;-64
2023/01/01 14:50:20;;;;;;;15.63;4.18;;;;;;;;;;5031164;28;20104;-64